Time;durP1;ratioP1;P1;durP2;ratioP2;P2;SDS_P1;SDS_P2;PMS_P1;PMS_P2;Temp;Humidity;BMP_temperature;BMP_pressure;BME280_temperature;BME280_humidity;BME280_pressure;Samples;Min_cycle;Max_cycle;Signal;HPM_P1;HPM_P2
2021/06/14 00:01:20;;;;;;;4.77;3.60;;;12.20;78.20;;;;;;5079323;28;20682;-91
2021/06/14 00:03:45;;;;;;;7.23;3.27;;;12.10;78.20;;;;;;5061391;28;20232;-91
2021/06/14 00:06:11;;;;;;;4.07;3.00;;;12.00;78.30;;;;;;5061838;28;20262;-91
2021/06/14 00:08:43;;;;;;;4.33;3.27;;;12.00;78.30;;;;;;5061563;28;20694;-91
2021/06/14 00:11:10;;;;;;;13.97;5.73;;;12.00;78.20;;;;;;5062318;28;20224;-91
2021/06/14 00:13:36;;;;;;;9.90;5.17;;;12.00;78.30;;;;;;5062040;28;20202;-91
2021/06/14 00:16:03;;;;;;;7.23;4.33;;;12.00;80.20;;;;;;5062282;28;20171;-91
2021/06/14 00:18:28;;;;;;;8.83;4.47;;;12.10;79.50;;;;;;5079099;28;20299;-91
2021/06/14 00:20:57;;;;;;;7.60;4.63;;;12.00;79.60;;;;;;5062332;28;20171;-91
2021/06/14 00:23:25;;;;;;;7.70;4.50;;;12.10;79.30;;;;;;5079584;28;20167;-91
2021/06/14 00:25:51;;;;;;;7.57;4.30;;;12.10;79.30;;;;;;5061305;28;20555;-91
2021/06/14 00:28:17;;;;;;;7.57;4.53;;;12.00;79.70;;;;;;5061253;28;20663;-90
2021/06/14 00:30:45;;;;;;;8.67;4.67;;;12.00;79.70;;;;;;5079561;28;20178;-91
2021/06/14 00:33:13;;;;;;;6.73;4.80;;;12.00;79.50;;;;;;5061481;28;20180;-90
2021/06/14 00:35:39;;;;;;;8.60;5.50;;;11.90;81.10;;;;;;5061742;28;20179;-91
2021/06/14 00:38:05;;;;;;;13.10;5.93;;;11.90;82.00;;;;;;5079418;28;20241;-90
2021/06/14 00:40:32;;;;;;;9.17;5.67;;;11.90;83.30;;;;;;5079704;28;20175;-91
2021/06/14 00:42:58;;;;;;;8.67;5.90;;;12.00;83.20;;;;;;5061216;28;20213;-91
2021/06/14 00:45:29;;;;;;;8.47;5.87;;;11.90;83.40;;;;;;5061475;28;20179;-91
2021/06/14 00:47:56;;;;;;;13.13;5.60;;;11.80;84.30;;;;;;5061004;28;20218;-90
2021/06/14 00:51:10;;;;;;;9.13;5.03;;;11.80;84.40;;;;;;5060491;28;20188;-91
2021/06/14 00:53:38;;;;;;;11.87;6.00;;;11.80;83.90;;;;;;4981481;28;20182;-91
2021/06/14 00:56:12;;;;;;;12.23;5.93;;;11.90;83.70;;;;;;4980920;28;20185;-90
2021/06/14 00:58:40;;;;;;;15.47;6.23;;;11.90;83.70;;;;;;5041049;28;20244;-91
2021/06/14 01:01:06;;;;;;;10.37;5.37;;;12.00;84.00;;;;;;5060679;28;20631;-91
2021/06/14 01:03:33;;;;;;;11.63;6.17;;;12.00;83.70;;;;;;5078334;28;20207;-91
2021/06/14 01:06:05;;;;;;;8.83;5.67;;;12.00;83.80;;;;;;5060291;28;20262;-91
2021/06/14 01:08:36;;;;;;;8.03;4.77;;;12.00;84.20;;;;;;5060071;28;20302;-90
2021/06/14 01:11:08;;;;;;;8.10;4.90;;;12.00;83.80;;;;;;5060457;28;20171;-91
2021/06/14 01:13:41;;;;;;;8.10;5.23;;;12.00;84.00;;;;;;5060218;28;20175;-91
2021/06/14 01:16:37;;;;;;;7.07;4.33;;;12.00;83.90;;;;;;5060039;28;20183;-90
2021/06/14 01:19:05;;;;;;;8.63;4.60;;;12.10;83.10;;;;;;5060198;28;20241;-91
2021/06/14 01:21:37;;;;;;;10.10;5.13;;;12.10;82.50;;;;;;5078922;28;20178;-90
2021/06/14 01:24:33;;;;;;;8.77;5.07;;;12.10;82.40;;;;;;5078256;28;20167;-90
2021/06/14 01:27:11;;;;;;;6.33;4.87;;;12.20;82.50;;;;;;5060781;28;20207;-91
2021/06/14 01:29:38;;;;;;;9.57;5.30;;;12.20;82.20;;;;;;5060014;28;20253;-90
2021/06/14 01:32:07;;;;;;;5.70;4.43;;;12.20;81.70;;;;;;5059880;28;20525;-90
2021/06/14 01:34:37;;;;;;;7.30;4.37;;;12.10;81.60;;;;;;5059924;28;20207;-90
2021/06/14 01:37:05;;;;;;;7.33;4.40;;;12.10;81.50;;;;;;5060436;28;20186;-90
2021/06/14 01:39:36;;;;;;;6.47;4.87;;;12.10;81.20;;;;;;5059953;28;20227;-91
2021/06/14 01:42:03;;;;;;;9.30;5.00;;;12.00;80.90;;;;;;5077690;28;20213;-91
2021/06/14 01:44:31;;;;;;;7.30;4.90;;;12.00;80.80;;;;;;5059617;28;20183;-91
2021/06/14 01:46:59;;;;;;;10.77;5.70;;;12.00;80.80;;;;;;5077059;28;20183;-91
2021/06/14 01:49:26;;;;;;;6.77;5.17;;;12.00;81.00;;;;;;5076658;28;20195;-90
2021/06/14 01:51:52;;;;;;;7.07;4.67;;;12.00;81.40;;;;;;5059370;28;20635;-90
2021/06/14 01:54:18;;;;;;;9.50;4.90;;;11.80;81.80;;;;;;5077389;28;20188;-91
2021/06/14 01:56:46;;;;;;;10.73;5.77;;;11.80;81.90;;;;;;5077113;28;20171;-91
2021/06/14 01:59:29;;;;;;;8.90;5.10;;;11.80;82.60;;;;;;5059308;28;20286;-91
2021/06/14 02:01:56;;;;;;;11.70;5.10;;;11.90;82.60;;;;;;5059336;28;20178;-90
2021/06/14 02:04:22;;;;;;;14.50;5.57;;;11.90;82.20;;;;;;5076653;28;20213;-91
2021/06/14 02:06:49;;;;;;;6.80;4.20;;;11.90;82.00;;;;;;5076702;28;20177;-91
2021/06/14 02:09:18;;;;;;;11.90;5.60;;;11.90;81.90;;;;;;5076818;28;20258;-91
2021/06/14 02:11:54;;;;;;;7.33;5.03;;;11.90;82.20;;;;;;5058379;28;20232;-91
2021/06/14 02:14:26;;;;;;;6.77;5.10;;;11.90;82.60;;;;;;5058802;28;20171;-91
2021/06/14 02:16:53;;;;;;;8.97;5.00;;;11.90;82.70;;;;;;5058804;28;20641;-90
2021/06/14 02:19:20;;;;;;;9.37;5.10;;;11.90;82.80;;;;;;5058876;28;20215;-91
2021/06/14 02:21:47;;;;;;;8.53;4.60;;;11.90;82.50;;;;;;5058449;28;20266;-91
2021/06/14 02:24:14;;;;;;;9.43;4.63;;;11.90;82.40;;;;;;5058039;28;20179;-91
2021/06/14 02:26:42;;;;;;;6.83;4.90;;;11.80;82.30;;;;;;5058355;28;20198;-91
2021/06/14 02:29:08;;;;;;;9.73;5.50;;;11.70;82.50;;;;;;5075614;28;20245;-91
2021/06/14 02:31:35;;;;;;;5.83;4.10;;;11.70;82.80;;;;;;5075933;28;20163;-91
2021/06/14 02:34:02;;;;;;;12.37;4.87;;;11.70;82.90;;;;;;5057624;28;20199;-91
2021/06/14 02:36:28;;;;;;;5.83;4.37;;;11.70;83.10;;;;;;5075594;28;20642;-91
2021/06/14 02:38:55;;;;;;;7.10;4.73;;;11.70;83.00;;;;;;5057393;28;20198;-91
2021/06/14 02:41:22;;;;;;;8.07;4.77;;;11.70;83.00;;;;;;5075637;28;20174;-91
2021/06/14 02:43:50;;;;;;;8.10;4.83;;;11.60;83.00;;;;;;5057886;28;20183;-91
2021/06/14 02:46:16;;;;;;;10.33;4.13;;;11.50;83.10;;;;;;5057601;28;20266;-91
2021/06/14 02:48:47;;;;;;;5.90;4.13;;;11.50;83.00;;;;;;5057987;28;20713;-91
2021/06/14 02:51:13;;;;;;;7.50;4.23;;;11.50;82.90;;;;;;5057622;28;20183;-91
2021/06/14 02:53:40;;;;;;;6.67;4.33;;;11.50;82.60;;;;;;5057620;28;20217;-91
2021/06/14 02:56:15;;;;;;;11.77;4.60;;;11.50;82.30;;;;;;5075424;28;20175;-90
2021/06/14 02:58:44;;;;;;;10.10;4.40;;;11.50;82.30;;;;;;5057388;28;20198;-90
2021/06/14 03:01:10;;;;;;;6.23;4.60;;;11.60;82.40;;;;;;5074981;28;20220;-90
2021/06/14 03:03:39;;;;;;;7.20;4.90;;;11.60;82.60;;;;;;5057237;28;20267;-90
2021/06/14 03:06:08;;;;;;;6.30;4.37;;;11.70;82.70;;;;;;5075589;28;20203;-91
2021/06/14 03:08:36;;;;;;;6.57;4.90;;;11.70;83.30;;;;;;5057658;28;20551;-91
2021/06/14 03:11:02;;;;;;;9.33;4.80;;;11.90;83.10;;;;;;5058254;28;20639;-91
2021/06/14 03:13:28;;;;;;;6.73;4.30;;;12.10;82.70;;;;;;5057732;28;20186;-91
2021/06/14 03:15:55;;;;;;;8.30;4.77;;;12.30;82.20;;;;;;5057404;28;20182;-90
2021/06/14 03:18:23;;;;;;;6.90;4.90;;;12.40;81.50;;;;;;5074987;28;20203;-90
2021/06/14 03:20:55;;;;;;;5.13;4.43;;;12.40;81.00;;;;;;5074728;28;20171;-90
2021/06/14 03:23:21;;;;;;;12.50;5.03;;;12.20;80.90;;;;;;5057032;28;20199;-92
2021/06/14 03:25:47;;;;;;;10.80;4.70;;;12.20;81.00;;;;;;5057513;28;20180;-91
2021/06/14 03:28:15;;;;;;;7.63;4.60;;;12.30;80.90;;;;;;5057050;28;20590;-91
2021/06/14 03:30:42;;;;;;;7.43;4.23;;;12.30;81.20;;;;;;5056956;28;20702;-90
2021/06/14 03:33:10;;;;;;;10.40;5.20;;;12.30;81.30;;;;;;5074666;28;20167;-90
2021/06/14 03:35:36;;;;;;;11.43;4.67;;;12.20;81.60;;;;;;5074876;28;20171;-90
2021/06/14 03:38:03;;;;;;;8.53;4.30;;;12.10;81.70;;;;;;5074675;28;20267;-91
2021/06/14 03:40:29;;;;;;;6.90;4.50;;;12.30;81.90;;;;;;5056822;28;20176;-91
2021/06/14 03:43:04;;;;;;;11.87;4.60;;;12.40;81.70;;;;;;5057170;28;20176;-90
2021/06/14 03:45:31;;;;;;;9.53;4.73;;;12.50;81.50;;;;;;5075109;28;20175;-90
2021/06/14 03:47:57;;;;;;;9.33;4.87;;;12.80;81.40;;;;;;5056732;28;20293;-91
2021/06/14 03:50:24;;;;;;;9.07;4.33;;;12.90;80.50;;;;;;5074950;28;20174;-90
2021/06/14 03:52:50;;;;;;;8.00;4.63;;;13.30;79.80;;;;;;5057230;28;20206;-90
2021/06/14 03:55:15;;;;;;;8.33;4.30;;;13.20;79.20;;;;;;5074858;28;20193;-90
2021/06/14 03:57:41;;;;;;;10.70;4.37;;;13.30;78.80;;;;;;5057309;28;20278;-90
2021/06/14 04:00:10;;;;;;;6.60;4.07;;;13.60;78.00;;;;;;5056893;28;20183;-90
2021/06/14 04:02:36;;;;;;;9.37;4.43;;;13.50;77.70;;;;;;5074674;28;20167;-91
2021/06/14 04:05:02;;;;;;;8.37;4.37;;;13.50;77.70;;;;;;5056931;28;20247;-90
2021/06/14 04:07:28;;;;;;;6.40;4.17;;;13.70;77.90;;;;;;5056719;28;20234;-90
2021/06/14 04:09:58;;;;;;;8.67;4.30;;;13.90;77.40;;;;;;5056843;28;20180;-90
2021/06/14 04:12:24;;;;;;;7.83;4.23;;;14.20;76.60;;;;;;5056888;28;20176;-90
2021/06/14 04:14:49;;;;;;;6.33;4.20;;;14.00;76.60;;;;;;5074667;28;20627;-90
2021/06/14 04:17:15;;;;;;;6.90;3.77;;;14.10;76.70;;;;;;5056788;28;20187;-90
2021/06/14 04:19:40;;;;;;;11.47;4.33;;;14.00;76.70;;;;;;5074799;28;20198;-90
2021/06/14 04:22:06;;;;;;;9.43;4.07;;;13.80;77.50;;;;;;5074583;28;20175;-90
2021/06/14 04:24:32;;;;;;;14.93;5.60;;;13.70;78.30;;;;;;5074670;28;20242;-90
2021/06/14 04:26:58;;;;;;;7.27;3.90;;;13.70;78.30;;;;;;5056277;28;20229;-90
2021/06/14 04:29:23;;;;;;;6.47;4.50;;;13.70;78.20;;;;;;5074043;28;20195;-90
2021/06/14 04:31:49;;;;;;;9.83;4.20;;;13.80;78.10;;;;;;5056448;28;20706;-90
2021/06/14 04:34:15;;;;;;;9.70;4.07;;;13.80;77.80;;;;;;5056288;28;20178;-90
2021/06/14 04:36:40;;;;;;;6.93;4.20;;;13.70;78.20;;;;;;5056519;28;20203;-90
2021/06/14 04:39:06;;;;;;;7.87;4.00;;;13.70;78.50;;;;;;5074873;28;20196;-90
2021/06/14 04:41:32;;;;;;;9.77;4.53;;;13.60;78.70;;;;;;5056454;28;20194;-90
2021/06/14 04:43:58;;;;;;;9.20;4.20;;;13.50;79.70;;;;;;5059572;28;20182;-91
2021/06/14 04:46:24;;;;;;;7.83;4.87;;;13.40;80.10;;;;;;5060245;28;20182;-90
2021/06/14 04:48:50;;;;;;;6.93;4.47;;;13.20;80.90;;;;;;5060403;28;20211;-90
2021/06/14 04:51:16;;;;;;;7.27;4.63;;;13.20;81.10;;;;;;5077892;28;20171;-90
2021/06/14 04:53:41;;;;;;;9.30;4.90;;;13.30;81.20;;;;;;5060645;28;20194;-90
2021/06/14 04:56:07;;;;;;;6.80;4.30;;;13.20;81.10;;;;;;5078377;28;20556;-90
2021/06/14 04:58:34;;;;;;;10.13;4.90;;;13.30;81.20;;;;;;5060236;28;20202;-91
2021/06/14 05:01:00;;;;;;;11.47;4.93;;;13.20;81.80;;;;;;5078130;28;20221;-90
2021/06/14 05:03:25;;;;;;;11.50;5.67;;;13.30;82.30;;;;;;5060075;28;20180;-91
2021/06/14 05:05:51;;;;;;;7.87;4.90;;;13.30;82.40;;;;;;5059808;28;20581;-91
2021/06/14 05:08:18;;;;;;;9.43;5.20;;;13.30;82.80;;;;;;5059915;28;20210;-91
2021/06/14 05:10:46;;;;;;;11.70;5.50;;;13.40;82.80;;;;;;5059802;28;20187;-90
2021/06/14 05:13:12;;;;;;;10.43;5.07;;;13.50;82.90;;;;;;5059885;28;20172;-90
2021/06/14 05:15:38;;;;;;;14.03;4.73;;;13.50;82.90;;;;;;5060187;28;20180;-90
2021/06/14 05:18:04;;;;;;;13.77;5.17;;;13.60;83.20;;;;;;5077354;28;20642;-91
2021/06/14 05:20:30;;;;;;;6.97;4.93;;;13.70;83.10;;;;;;5060083;28;20198;-90
2021/06/14 05:22:57;;;;;;;11.07;4.93;;;13.80;83.10;;;;;;5059243;28;20212;-90
2021/06/14 05:25:23;;;;;;;13.13;5.10;;;13.90;82.80;;;;;;5077211;28;20190;-90
2021/06/14 05:27:48;;;;;;;10.77;4.67;;;14.10;82.50;;;;;;5076966;28;20207;-90
2021/06/14 05:30:15;;;;;;;12.90;6.10;;;14.20;81.60;;;;;;5097268;22;20308;-88
2021/06/14 05:32:40;;;;;;;7.63;5.07;;;14.30;81.50;;;;;;5075999;28;20193;-89
2021/06/14 05:35:08;;;;;;;6.37;4.57;;;14.40;81.10;;;;;;5058067;28;20183;-89
2021/06/14 05:37:33;;;;;;;8.70;4.20;;;14.60;81.00;;;;;;5057922;28;20179;-88
2021/06/14 05:39:59;;;;;;;7.37;4.33;;;14.80;80.80;;;;;;5075638;28;20299;-88
2021/06/14 05:42:25;;;;;;;7.27;3.77;;;14.90;79.80;;;;;;5057602;28;20167;-88
2021/06/14 05:44:50;;;;;;;11.30;4.00;;;15.00;78.70;;;;;;5075471;28;20191;-88
2021/06/14 05:47:16;;;;;;;8.60;3.63;;;15.10;78.80;;;;;;5057610;28;20202;-88
2021/06/14 05:49:42;;;;;;;7.67;3.63;;;15.20;78.10;;;;;;5075482;28;20270;-88
2021/06/14 05:52:07;;;;;;;7.37;3.60;;;15.30;77.70;;;;;;5057525;28;20175;-88
2021/06/14 05:54:33;;;;;;;10.17;3.80;;;15.30;77.10;;;;;;5056379;28;20190;-88
2021/06/14 05:56:59;;;;;;;8.67;3.47;;;15.40;76.80;;;;;;5057425;28;20171;-88
2021/06/14 05:59:24;;;;;;;8.83;3.57;;;15.50;76.00;;;;;;5075194;28;20199;-88
2021/06/14 06:01:50;;;;;;;7.30;3.20;;;15.60;76.30;;;;;;5057212;28;20265;-88
2021/06/14 06:04:17;;;;;;;8.60;3.07;;;15.70;76.20;;;;;;5075094;28;20194;-88
2021/06/14 06:06:43;;;;;;;7.77;3.27;;;15.80;75.80;;;;;;5057073;28;20635;-88
2021/06/14 06:09:08;;;;;;;5.80;3.10;;;15.90;74.90;;;;;;5057075;28;20207;-88
2021/06/14 06:11:34;;;;;;;6.03;3.23;;;16.00;73.50;;;;;;5075059;28;20235;-88
2021/06/14 06:13:59;;;;;;;5.23;2.80;;;16.10;72.60;;;;;;5058308;28;20191;-89
2021/06/14 06:16:25;;;;;;;6.47;2.77;;;16.20;73.30;;;;;;5075288;28;20643;-89
2021/06/14 06:18:51;;;;;;;6.53;2.93;;;16.20;72.00;;;;;;5074984;28;20224;-88
2021/06/14 06:21:17;;;;;;;7.03;3.00;;;16.20;72.20;;;;;;5056986;28;20553;-88
2021/06/14 06:23:42;;;;;;;8.50;3.10;;;16.20;72.20;;;;;;5074941;28;20179;-88
2021/06/14 06:26:08;;;;;;;6.07;3.10;;;16.20;71.70;;;;;;5056973;28;20229;-88
2021/06/14 06:28:33;;;;;;;3.03;2.40;;;16.30;70.70;;;;;;5074404;28;20202;-88
2021/06/14 06:30:59;;;;;;;5.57;3.17;;;16.30;71.50;;;;;;5074896;28;20163;-88
2021/06/14 06:33:25;;;;;;;7.93;3.20;;;16.50;72.10;;;;;;5075226;28;20256;-88
2021/06/14 06:35:51;;;;;;;8.70;3.30;;;16.50;69.90;;;;;;5056935;28;20175;-88
2021/06/14 06:38:16;;;;;;;8.20;3.30;;;16.60;70.20;;;;;;5074484;28;20210;-88
2021/06/14 06:40:42;;;;;;;9.57;3.40;;;16.60;70.70;;;;;;5057208;28;20199;-88
2021/06/14 06:43:08;;;;;;;6.18;3.13;;;16.70;69.80;;;;;;5075113;28;20228;-88
2021/06/14 06:45:34;;;;;;;7.43;3.63;;;16.80;69.70;;;;;;5074632;28;20262;-88
2021/06/14 06:48:01;;;;;;;8.95;3.65;;;16.80;69.10;;;;;;5056980;28;20256;-88
2021/06/14 06:50:26;;;;;;;7.40;3.95;;;16.90;70.00;;;;;;5056504;28;20203;-88
2021/06/14 06:52:52;;;;;;;8.57;4.00;;;16.90;70.30;;;;;;5074784;28;20564;-88
2021/06/14 06:55:18;;;;;;;8.68;3.88;;;17.10;69.00;;;;;;5056528;28;20176;-88
2021/06/14 06:57:43;;;;;;;5.68;3.45;;;17.20;68.50;;;;;;5056680;28;20178;-87
2021/06/14 07:00:14;;;;;;;7.13;3.42;;;17.20;68.40;;;;;;5056764;28;20208;-87
2021/06/14 07:02:40;;;;;;;9.77;5.03;;;17.30;67.60;;;;;;5074726;28;20551;-87
2021/06/14 07:05:06;;;;;;;12.02;4.45;;;17.30;67.80;;;;;;5074589;28;20179;-88
2021/06/14 07:07:32;;;;;;;8.43;3.97;;;17.40;67.90;;;;;;5073873;28;20286;-87
2021/06/14 07:09:58;;;;;;;7.60;4.20;;;17.50;69.00;;;;;;5056356;28;20219;-87
2021/06/14 07:12:24;;;;;;;8.75;4.00;;;17.60;67.00;;;;;;5073968;28;20168;-87
2021/06/14 07:14:50;;;;;;;7.88;4.15;;;17.70;67.70;;;;;;5074021;28;20225;-88
2021/06/14 07:17:16;;;;;;;8.20;3.83;;;17.70;66.90;;;;;;5055944;28;20556;-87
2021/06/14 07:19:43;;;;;;;9.43;4.22;;;17.80;68.20;;;;;;5055814;28;20705;-90
2021/06/14 07:22:08;;;;;;;10.80;4.15;;;18.00;67.10;;;;;;5073961;28;20185;-87
2021/06/14 07:24:34;;;;;;;10.27;4.47;;;18.00;67.00;;;;;;5056340;28;20647;-88
2021/06/14 07:26:59;;;;;;;16.25;4.95;;;18.30;67.70;;;;;;5055963;28;20639;-88
2021/06/14 07:29:28;;;;;;;11.27;4.00;;;18.30;66.20;;;;;;5055749;28;20210;-88
2021/06/14 07:31:57;;;;;;;9.20;4.97;;;18.40;66.20;;;;;;5055818;28;20179;-87
2021/06/14 07:34:23;;;;;;;8.75;3.75;;;18.60;64.70;;;;;;5056100;28;20205;-87
2021/06/14 07:36:48;;;;;;;8.18;4.15;;;18.60;64.50;;;;;;5073734;28;20171;-87
2021/06/14 07:39:15;;;;;;;9.65;4.72;;;18.70;63.50;;;;;;5056014;28;20199;-87
2021/06/14 07:41:41;;;;;;;12.93;4.75;;;18.80;64.70;;;;;;5073536;28;20167;-87
2021/06/14 07:44:07;;;;;;;9.30;4.32;;;18.80;62.70;;;;;;5055775;28;20178;-87
2021/06/14 07:46:32;;;;;;;9.65;4.57;;;18.80;61.30;;;;;;5073587;28;20591;-87
2021/06/14 07:48:58;;;;;;;9.95;4.38;;;19.00;62.50;;;;;;5055733;28;20211;-86
2021/06/14 07:51:24;;;;;;;14.25;4.53;;;19.20;62.20;;;;;;5055524;28;20174;-87
2021/06/14 07:53:50;;;;;;;11.23;4.22;;;19.30;61.00;;;;;;5055521;28;20198;-87
2021/06/14 07:56:18;;;;;;;11.23;4.43;;;19.40;61.00;;;;;;5055373;28;20669;-87
2021/06/14 07:58:45;;;;;;;11.07;4.72;;;19.50;60.50;;;;;;5073611;28;20187;-87
2021/06/14 08:01:11;;;;;;;11.65;4.10;;;19.40;60.20;;;;;;5073362;28;20175;-87
2021/06/14 08:03:36;;;;;;;13.25;5.07;;;19.60;58.90;;;;;;5055674;28;20179;-87
2021/06/14 08:06:04;;;;;;;11.80;4.57;;;19.70;60.60;;;;;;5055335;28;20209;-88
2021/06/14 08:08:30;;;;;;;11.07;4.20;;;19.70;60.40;;;;;;5073188;28;20198;-87
2021/06/14 08:10:56;;;;;;;10.32;4.93;;;19.90;61.80;;;;;;5073459;28;20175;-87
2021/06/14 08:13:22;;;;;;;13.25;5.05;;;19.90;58.10;;;;;;5073502;28;20156;-87
2021/06/14 08:15:48;;;;;;;11.25;5.18;;;19.80;58.60;;;;;;5055316;28;20171;-87
2021/06/14 08:26:22;;;;;;;10.40;4.25;;;20.30;58.60;;;;;;5077835;28;20230;-88
2021/06/14 08:28:47;;;;;;;10.73;4.70;;;20.40;58.60;;;;;;5059724;28;20270;-88
2021/06/14 08:31:13;;;;;;;12.13;4.93;;;20.50;58.90;;;;;;5077714;28;20160;-90
2021/06/14 08:33:39;;;;;;;7.53;5.05;;;20.70;58.50;;;;;;5059391;28;20176;-88
2021/06/14 08:36:05;;;;;;;12.77;5.68;;;20.70;58.00;;;;;;5059752;28;20523;-89
2021/06/14 08:38:32;;;;;;;8.73;4.72;;;20.70;60.00;;;;;;5059258;28;20233;-90
2021/06/14 08:40:58;;;;;;;10.88;4.45;;;20.90;58.80;;;;;;5059157;28;20175;-89
2021/06/14 08:43:24;;;;;;;9.25;4.47;;;21.00;58.00;;;;;;5059000;28;20228;-90
2021/06/14 08:45:51;;;;;;;11.68;5.20;;;20.90;55.70;;;;;;5059268;28;20175;-90
2021/06/14 08:48:17;;;;;;;11.95;4.85;;;20.90;57.20;;;;;;5076566;28;20195;-90
2021/06/14 08:50:43;;;;;;;7.55;4.72;;;21.00;57.60;;;;;;5076501;28;20681;-90
2021/06/14 08:53:09;;;;;;;15.25;5.22;;;21.20;57.40;;;;;;5058803;28;20172;-90
2021/06/14 08:55:36;;;;;;;11.15;4.35;;;21.20;57.10;;;;;;5058692;28;20554;-90
2021/06/14 08:58:02;;;;;;;10.13;4.80;;;21.30;54.50;;;;;;5059152;28;20179;-89
2021/06/14 09:00:29;;;;;;;11.30;5.15;;;21.50;56.80;;;;;;5058399;28;20195;-90
2021/06/14 09:02:56;;;;;;;11.38;4.47;;;21.70;56.70;;;;;;5076668;28;20255;-91
2021/06/14 09:05:23;;;;;;;9.80;3.75;;;21.50;55.00;;;;;;5058316;28;20178;-90
2021/06/14 09:07:50;;;;;;;8.75;4.80;;;21.50;53.20;;;;;;5058584;28;20211;-90
2021/06/14 09:10:23;;;;;;;12.75;4.82;;;21.40;54.20;;;;;;5058399;28;20198;-89
2021/06/14 09:12:49;;;;;;;11.05;4.97;;;21.50;54.80;;;;;;5076248;28;20226;-90
2021/06/14 09:15:15;;;;;;;8.15;4.68;;;21.70;55.30;;;;;;5058114;28;20210;-89
2021/06/14 09:17:52;;;;;;;9.80;4.38;;;22.00;55.20;;;;;;5058246;28;20182;-89
2021/06/14 09:20:18;;;;;;;13.07;6.30;;;21.70;53.80;;;;;;5057956;28;20566;-88
2021/06/14 09:22:44;;;;;;;10.43;4.60;;;21.80;53.60;;;;;;5058084;28;20577;-88
2021/06/14 09:25:17;;;;;;;12.52;4.25;;;21.80;52.50;;;;;;5076189;28;20255;-90
2021/06/14 09:27:48;;;;;;;8.88;4.55;;;21.80;53.40;;;;;;5058065;28;20199;-90
2021/06/14 09:30:27;;;;;;;15.27;4.22;;;21.90;53.70;;;;;;5056341;28;20272;-89
2021/06/14 09:33:23;;;;;;;7.55;3.45;;;22.10;52.70;;;;;;5058064;28;20171;-89
2021/06/14 09:38:52;;;;;;;9.75;3.83;;;22.20;52.30;;;;;;5038345;28;20195;-89
2021/06/14 09:41:19;;;;;;;12.80;4.13;;;22.20;51.20;;;;;;5057839;28;20178;-90
2021/06/14 09:43:47;;;;;;;7.45;3.47;;;22.20;51.50;;;;;;5057857;28;20172;-90
2021/06/14 09:46:30;;;;;;;8.57;3.85;;;22.30;51.60;;;;;;5057627;28;20253;-89
2021/06/14 09:49:04;;;;;;;8.02;3.65;;;22.50;51.90;;;;;;5057405;28;20626;-89
2021/06/14 09:51:31;;;;;;;10.20;4.05;;;22.70;49.30;;;;;;5057592;28;20215;-89
2021/06/14 09:53:56;;;;;;;6.82;4.15;;;22.70;51.10;;;;;;5057615;28;20250;-89
2021/06/14 09:56:24;;;;;;;7.82;3.92;;;23.00;50.40;;;;;;5057665;28;20175;-87
2021/06/14 09:58:52;;;;;;;13.30;4.20;;;22.90;50.40;;;;;;5057075;28;20283;-88
2021/06/14 10:01:29;;;;;;;6.53;3.35;;;22.80;50.30;;;;;;5057219;28;20683;-88
2021/06/14 10:03:57;;;;;;;10.63;4.18;;;22.90;51.30;;;;;;5057140;28;20198;-88
2021/06/14 10:06:33;;;;;;;11.00;3.63;;;23.20;49.90;;;;;;5057016;28;20193;-88
2021/06/14 10:08:59;;;;;;;8.82;3.95;;;23.40;48.20;;;;;;5074855;28;20286;-88
2021/06/14 10:11:33;;;;;;;10.27;4.00;;;23.50;48.00;;;;;;5056911;28;20228;-89
2021/06/14 10:14:15;;;;;;;6.45;3.70;;;23.80;48.90;;;;;;5057364;28;20170;-89
2021/06/14 10:16:42;;;;;;;5.45;3.63;;;23.70;50.50;;;;;;5057344;28;20167;-89
2021/06/14 10:19:10;;;;;;;8.02;3.17;;;23.50;47.80;;;;;;5074992;28;20218;-90
2021/06/14 10:21:45;;;;;;;8.57;3.80;;;23.80;48.20;;;;;;5056947;28;20193;-87
2021/06/14 10:24:19;;;;;;;8.77;3.80;;;23.80;48.20;;;;;;5056851;28;20163;-88
2021/06/14 10:26:48;;;;;;;7.70;3.88;;;24.00;48.20;;;;;;5074820;28;20661;-86
2021/06/14 10:29:15;;;;;;;7.45;3.65;;;23.80;45.00;;;;;;5075357;28;20282;-87
2021/06/14 10:31:47;;;;;;;5.63;3.55;;;23.70;48.10;;;;;;5057165;28;20171;-87
2021/06/14 10:34:14;;;;;;;8.35;3.60;;;23.90;48.60;;;;;;5056738;28;20225;-87
2021/06/14 10:36:54;;;;;;;7.20;3.90;;;24.20;50.20;;;;;;5074480;28;20519;-87
2021/06/14 10:39:27;;;;;;;9.50;3.80;;;24.10;46.80;;;;;;5056555;28;20191;-87
2021/06/14 10:41:53;;;;;;;10.32;4.53;;;24.30;49.70;;;;;;5056097;28;20171;-88
2021/06/14 10:44:19;;;;;;;8.10;3.80;;;24.70;47.80;;;;;;5056527;28;20672;-87
2021/06/14 10:46:47;;;;;;;6.13;3.55;;;24.40;46.30;;;;;;5056672;28;20551;-87
2021/06/14 10:49:15;;;;;;;7.78;4.00;;;24.70;46.70;;;;;;5056347;28;20257;-87
2021/06/14 10:51:41;;;;;;;5.28;3.42;;;24.80;47.00;;;;;;5056292;28;20296;-87
2021/06/14 10:54:17;;;;;;;8.15;3.95;;;24.70;48.10;;;;;;5056595;28;20232;-88
2021/06/14 10:56:43;;;;;;;6.82;4.20;;;24.80;47.90;;;;;;5056407;28;20175;-90
2021/06/14 10:59:11;;;;;;;8.43;4.03;;;25.10;46.70;;;;;;5055619;28;20422;-89
2021/06/14 11:01:42;;;;;;;8.05;3.53;;;24.90;47.10;;;;;;5056409;28;20654;-89
2021/06/14 11:04:10;;;;;;;7.53;3.22;;;25.00;45.90;;;;;;5074052;28;20167;-89
2021/06/14 11:06:48;;;;;;;7.38;3.47;;;25.10;44.60;;;;;;5073979;28;20182;-89
2021/06/14 11:09:14;;;;;;;9.27;3.75;;;24.70;46.90;;;;;;5055950;28;20253;-89
2021/06/14 11:11:58;;;;;;;7.57;3.47;;;24.90;45.70;;;;;;5055972;28;20187;-89
2021/06/14 11:14:42;;;;;;;9.30;3.80;;;25.30;46.70;;;;;;5074052;28;20155;-88
2021/06/14 11:17:16;;;;;;;5.88;3.58;;;25.30;46.70;;;;;;5055784;28;20663;-88
2021/06/14 11:19:43;;;;;;;7.88;3.90;;;25.10;45.40;;;;;;5055754;28;20698;-88
2021/06/14 11:22:09;;;;;;;11.60;4.10;;;24.90;46.70;;;;;;5055756;28;20178;-88
2021/06/14 11:24:40;;;;;;;8.05;4.03;;;24.70;47.90;;;;;;5055745;28;20179;-88
2021/06/14 11:27:09;;;;;;;9.02;3.42;;;24.70;46.80;;;;;;5055580;28;20175;-88
2021/06/14 11:29:45;;;;;;;10.30;3.58;;;24.80;47.20;;;;;;5055462;28;20787;-88
2021/06/14 11:32:17;;;;;;;11.25;3.63;;;25.40;46.10;;;;;;5056686;28;20198;-88
2021/06/14 11:34:45;;;;;;;7.65;3.28;;;25.70;45.30;;;;;;5073413;28;20147;-88
2021/06/14 11:37:10;;;;;;;8.50;3.55;;;25.50;46.40;;;;;;5073473;28;20600;-88
2021/06/14 11:39:36;;;;;;;8.55;4.28;;;25.70;44.20;;;;;;5094176;22;20226;-91
2021/06/14 11:42:18;;;;;;;6.57;3.80;;;25.70;44.30;;;;;;5056273;28;20254;-90
2021/06/14 11:44:55;;;;;;;6.55;3.60;;;25.70;45.50;;;;;;5073881;28;20155;-90
2021/06/14 11:47:27;;;;;;;8.18;3.50;;;25.80;45.60;;;;;;5055598;28;20635;-91
2021/06/14 11:50:00;;;;;;;11.55;3.42;;;25.80;46.60;;;;;;5055729;28;20253;-90
2021/06/14 11:52:32;;;;;;;7.80;3.88;;;25.70;45.00;;;;;;5054695;28;20187;-91
2021/06/14 11:54:59;;;;;;;6.35;3.05;;;26.10;46.10;;;;;;5055412;28;20160;-90
2021/06/14 11:57:32;;;;;;;7.50;3.72;;;25.30;46.10;;;;;;5055219;28;20175;-90
2021/06/14 11:59:58;;;;;;;6.28;3.30;;;25.20;46.40;;;;;;5055383;28;20245;-90
2021/06/14 12:02:26;;;;;;;5.03;3.30;;;25.60;46.80;;;;;;5055205;28;20206;-90
2021/06/14 12:04:57;;;;;;;8.88;3.38;;;25.40;47.90;;;;;;5055312;28;20175;-90
2021/06/14 12:07:38;;;;;;;7.05;3.13;;;25.70;45.80;;;;;;5055287;28;20167;-90
2021/06/14 12:10:13;;;;;;;5.88;3.83;;;26.10;42.20;;;;;;5055355;28;20249;-91
2021/06/14 12:12:41;;;;;;;4.47;3.10;;;25.90;42.20;;;;;;5055373;28;20159;-91
2021/06/14 12:15:08;;;;;;;8.23;3.30;;;26.30;44.00;;;;;;5073159;28;20167;-90
2021/06/14 12:17:36;;;;;;;6.43;3.55;;;26.00;46.50;;;;;;5055042;28;20183;-92
2021/06/14 12:20:05;;;;;;;6.00;3.20;;;26.00;47.80;;;;;;5055383;28;20195;-90
2021/06/14 12:22:30;;;;;;;12.05;3.47;;;26.10;42.30;;;;;;5056346;28;20183;-90
2021/06/14 12:25:08;;;;;;;5.95;3.25;;;25.70;44.60;;;;;;5055177;28;20198;-90
2021/06/14 12:27:34;;;;;;;6.28;3.78;;;26.20;44.70;;;;;;5055344;28;20199;-90
2021/06/14 12:30:04;;;;;;;8.27;3.92;;;26.00;43.70;;;;;;5055346;28;20195;-91
2021/06/14 12:32:34;;;;;;;8.00;3.55;;;26.50;43.30;;;;;;5054885;28;20258;-90
2021/06/14 12:35:02;;;;;;;10.30;3.60;;;26.50;43.80;;;;;;5055359;28;20527;-90
2021/06/14 12:37:28;;;;;;;11.95;3.88;;;26.70;43.40;;;;;;5055545;28;20210;-90
2021/06/14 12:40:06;;;;;;;5.18;3.40;;;26.30;43.00;;;;;;5054833;28;20305;-90
2021/06/14 12:42:33;;;;;;;14.55;4.15;;;25.90;45.00;;;;;;5072868;28;20212;-90
2021/06/14 12:45:13;;;;;;;9.45;3.30;;;26.50;45.50;;;;;;5072770;28;20179;-90
2021/06/14 12:47:46;;;;;;;10.02;3.92;;;26.80;43.70;;;;;;5055266;28;20701;-91
2021/06/14 12:50:25;;;;;;;5.97;3.35;;;26.90;44.10;;;;;;5073845;28;20685;-91
2021/06/14 12:52:52;;;;;;;7.93;3.67;;;27.60;43.30;;;;;;5055682;28;20171;-92
2021/06/14 12:55:19;;;;;;;5.75;3.25;;;27.20;42.00;;;;;;5056469;28;20185;-92
2021/06/14 12:57:45;;;;;;;7.95;3.20;;;26.90;41.70;;;;;;5073770;28;20537;-91
2021/06/14 13:00:18;;;;;;;8.45;3.40;;;26.50;43.00;;;;;;5057073;28;20697;-92